This is the latest recevied weather packets stored in our database for station/object SP8PUB-10. If no packets are shown the sender has not sent any weather packets the latest 10 day(s).
| Time | Temp. | Humidity | Pressure | Rain* | Wind** | Luminosity | Snow |
|---|---|---|---|---|---|---|---|
| 1777620022 | 14.44° C | 47% | 1027.4 hPa | - | - | - | - |
| 1777619122 | 13.33° C | 49% | 1027.6 hPa | - | - | - | - |
| 1777618222 | 12.22° C | 50% | 1027.6 hPa | - | - | - | - |
| 1777617322 | 10.56° C | 53% | 1027.6 hPa | - | - | - | - |
| 1777616422 | 9.44° C | 54% | 1027.6 hPa | - | - | - | - |
| 1777615522 | 8.33° C | 54% | 1027.7 hPa | - | - | - | - |
| 1777614622 | 8.33° C | 56% | 1027.6 hPa | - | - | - | - |
| 1777613722 | 7.78° C | 56% | 1027.6 hPa | - | - | - | - |
| 1777612821 | 7.78° C | 56% | 1027.5 hPa | - | - | - | - |
| 1777611921 | 7.22° C | 56% | 1027.5 hPa | - | - | - | - |
| 1777611021 | 6.67° C | 56% | 1027.3 hPa | - | - | - | - |
| 1777610121 | 6.67° C | 57% | 1027.3 hPa | - | - | - | - |
| 1777609221 | 6.11° C | 56% | 1027.3 hPa | - | - | - | - |
| 1777608321 | 6.11° C | 57% | 1027.2 hPa | - | - | - | - |
| 1777607421 | 6.11° C | 57% | 1027.1 hPa | - | - | - | - |
| 1777606521 | 5.56° C | 56% | 1027.2 hPa | - | - | - | - |
| 1777605621 | 5.56° C | 56% | 1027.3 hPa | - | - | - | - |
| 1777604721 | 5.56° C | 57% | 1027.3 hPa | - | - | - | - |
| 1777603820 | 5° C | 57% | 1026.7 hPa | - | - | - | - |
| 1777602920 | 5.56° C | 58% | 1027.3 hPa | - | - | - | - |
| 1777602020 | 5.56° C | 57% | 1027.2 hPa | - | - | - | - |
| 1777586722 | 6.67° C | 50% | 1027.5 hPa | - | - | - | - |
| 1777585822 | 6.67° C | 49% | 1027.5 hPa | - | - | - | - |
| 1777584922 | 6.67° C | 49% | 1027.4 hPa | - | - | - | - |
| 1777584021 | 6.11° C | 50% | 1027.5 hPa | - | - | - | - |
* Rain since midnight (hover to see other rain measurements)
** Current wind speed in m/s (hover to see current wind gust speed)